createdAt,value
2018-08-13T00:00:08.100Z,59.90
2018-08-13T00:00:39.952Z,59.90
2018-08-13T00:01:12.128Z,59.80
2018-08-13T00:01:43.937Z,59.80
2018-08-13T00:02:15.776Z,59.80
2018-08-13T00:02:47.661Z,59.70
2018-08-13T00:03:19.443Z,60.30
2018-08-13T00:03:51.240Z,59.80
2018-08-13T00:04:23.009Z,59.80
2018-08-13T00:04:54.802Z,59.90
2018-08-13T00:05:26.584Z,59.80
2018-08-13T00:05:58.383Z,59.50
2018-08-13T00:06:30.174Z,59.70
2018-08-13T00:07:01.994Z,59.70
2018-08-13T00:07:33.898Z,59.70
2018-08-13T00:08:05.936Z,59.80
2018-08-13T00:08:37.765Z,59.70
2018-08-13T00:09:09.741Z,59.70
2018-08-13T00:09:41.577Z,59.70
2018-08-13T00:10:13.348Z,59.70
2018-08-13T00:10:45.186Z,59.80
2018-08-13T00:11:17.265Z,59.70
2018-08-13T00:11:49.165Z,59.80
2018-08-13T00:12:21.010Z,59.80
2018-08-13T00:12:53.244Z,59.70
2018-08-13T00:13:25.185Z,59.70
2018-08-13T00:13:57.254Z,59.70
2018-08-13T00:14:29.113Z,60.20
2018-08-13T00:15:00.908Z,59.80
2018-08-13T00:15:32.665Z,59.60
2018-08-13T00:16:04.467Z,59.60
2018-08-13T00:16:36.263Z,59.70
2018-08-13T00:17:08.214Z,59.50
2018-08-13T00:17:40.041Z,59.60
2018-08-13T00:18:12.108Z,59.70
2018-08-13T00:18:43.895Z,59.60
2018-08-13T00:19:15.771Z,59.40
2018-08-13T00:19:47.599Z,59.70
2018-08-13T00:20:19.445Z,59.80
2018-08-13T00:20:51.275Z,59.70
2018-08-13T00:21:23.105Z,59.70
2018-08-13T00:21:55.024Z,59.70
2018-08-13T00:22:26.844Z,59.80
2018-08-13T00:22:58.629Z,59.80
2018-08-13T00:23:30.476Z,59.90
2018-08-13T00:24:02.320Z,59.90
2018-08-13T00:24:34.224Z,60.00
2018-08-13T00:25:06.017Z,60.20
2018-08-13T00:25:37.831Z,60.10
2018-08-13T00:26:09.739Z,60.20
2018-08-13T00:26:41.553Z,60.20
2018-08-13T00:27:13.354Z,60.10
2018-08-13T00:27:45.196Z,60.20
2018-08-13T00:28:17.038Z,60.30
2018-08-13T00:28:48.811Z,60.80
2018-08-13T00:29:20.612Z,60.30
2018-08-13T00:29:52.456Z,60.20
2018-08-13T00:30:24.316Z,60.20
2018-08-13T00:30:56.116Z,60.10
2018-08-13T00:31:28.067Z,60.10
2018-08-13T00:31:59.869Z,60.10
2018-08-13T00:32:31.649Z,60.10
2018-08-13T00:33:03.513Z,60.10
2018-08-13T00:33:35.490Z,60.10
2018-08-13T00:34:07.433Z,60.10
2018-08-13T00:34:39.274Z,60.00
2018-08-13T00:35:11.113Z,60.10
2018-08-13T00:35:42.917Z,60.00
2018-08-13T00:36:14.742Z,60.00
2018-08-13T00:36:46.548Z,60.00
2018-08-13T00:37:18.415Z,60.00
2018-08-13T00:37:50.225Z,59.90
2018-08-13T00:38:22.001Z,59.90
2018-08-13T00:38:53.797Z,59.90
2018-08-13T00:39:25.599Z,59.90
2018-08-13T00:39:57.472Z,59.90
2018-08-13T00:40:29.452Z,59.90
2018-08-13T00:41:01.229Z,60.30
2018-08-13T00:41:33.008Z,60.00
2018-08-13T00:42:04.804Z,59.90
2018-08-13T00:42:36.597Z,60.00
2018-08-13T00:43:08.403Z,59.80
2018-08-13T00:43:40.223Z,59.90
2018-08-13T00:44:12.012Z,59.90
2018-08-13T00:44:43.855Z,60.00
2018-08-13T00:45:15.701Z,59.90
2018-08-13T00:45:47.485Z,60.00
2018-08-13T00:46:19.280Z,60.00
2018-08-13T00:46:51.091Z,60.00
2018-08-13T00:47:22.880Z,60.00
2018-08-13T00:47:54.701Z,60.00
2018-08-13T00:48:26.495Z,60.00
2018-08-13T00:48:58.290Z,59.90
2018-08-13T00:49:30.141Z,60.00
2018-08-13T00:50:02.018Z,60.00
2018-08-13T00:50:33.863Z,60.00
2018-08-13T00:51:05.679Z,60.00
2018-08-13T00:51:37.720Z,60.00
2018-08-13T00:52:09.821Z,60.00
2018-08-13T00:52:41.672Z,60.00
2018-08-13T00:53:13.551Z,60.00
2018-08-13T00:53:45.391Z,60.70
2018-08-13T00:54:17.172Z,60.00
2018-08-13T00:54:49.141Z,60.00
2018-08-13T00:55:20.911Z,59.90
2018-08-13T00:55:52.724Z,59.90
2018-08-13T00:56:24.731Z,59.90
2018-08-13T00:56:56.660Z,59.80
2018-08-13T00:57:28.510Z,59.80
2018-08-13T00:58:00.331Z,59.80
2018-08-13T00:58:32.234Z,59.90
2018-08-13T00:59:04.189Z,59.80
2018-08-13T00:59:35.970Z,59.90
2018-08-13T01:00:07.869Z,59.80
2018-08-13T01:00:39.761Z,59.70
2018-08-13T01:01:11.589Z,59.70
2018-08-13T01:01:43.352Z,59.70
2018-08-13T01:02:15.227Z,59.80
2018-08-13T01:02:47.020Z,59.70
2018-08-13T01:03:18.845Z,60.00
2018-08-13T01:03:50.615Z,59.70
2018-08-13T01:04:22.598Z,59.60
2018-08-13T01:04:54.565Z,59.70
2018-08-13T01:05:26.420Z,59.80
2018-08-13T01:05:58.206Z,59.80
2018-08-13T01:06:30.010Z,59.90
2018-08-13T01:07:01.948Z,59.80
2018-08-13T01:07:33.839Z,59.70
2018-08-13T01:08:05.599Z,59.70
2018-08-13T01:08:37.409Z,59.70
2018-08-13T01:09:09.339Z,59.50
2018-08-13T01:09:41.188Z,59.70
2018-08-13T01:10:13.076Z,59.70
2018-08-13T01:10:44.940Z,59.70
2018-08-13T01:11:16.778Z,59.70
2018-08-13T01:11:48.588Z,59.80
2018-08-13T01:12:20.348Z,60.00
2018-08-13T01:12:52.145Z,60.30
2018-08-13T01:13:23.942Z,60.00
2018-08-13T01:13:55.761Z,59.90
2018-08-13T01:14:27.548Z,59.80
2018-08-13T01:14:59.355Z,60.00
2018-08-13T01:15:31.442Z,59.60
2018-08-13T01:16:03.221Z,59.70
2018-08-13T01:16:35.006Z,59.60
2018-08-13T01:17:06.831Z,59.60
2018-08-13T01:17:38.612Z,59.80
2018-08-13T01:18:10.498Z,59.70
2018-08-13T01:18:42.280Z,59.60
2018-08-13T01:19:14.086Z,59.60
2018-08-13T01:19:45.921Z,59.60
2018-08-13T01:20:17.722Z,59.70
2018-08-13T01:20:49.514Z,59.70
2018-08-13T01:21:21.312Z,59.80
2018-08-13T01:21:53.087Z,59.80
2018-08-13T01:22:24.884Z,59.90
2018-08-13T01:22:56.675Z,59.80
2018-08-13T01:23:28.458Z,59.70
2018-08-13T01:24:00.244Z,59.70
2018-08-13T01:24:32.011Z,59.80
2018-08-13T01:25:03.881Z,59.80
2018-08-13T01:25:35.680Z,59.70
2018-08-13T01:26:07.510Z,59.50
2018-08-13T01:26:39.315Z,59.50
2018-08-13T01:27:11.140Z,59.40
2018-08-13T01:27:43.059Z,59.60
2018-08-13T01:28:14.903Z,59.60
2018-08-13T01:28:46.678Z,59.50
2018-08-13T01:29:18.497Z,59.50
2018-08-13T01:29:50.499Z,59.50
2018-08-13T01:30:22.284Z,59.50
2018-08-13T01:30:54.237Z,59.60
2018-08-13T01:31:26.060Z,59.50
2018-08-13T01:31:58.058Z,59.50
2018-08-13T01:32:29.947Z,59.70
2018-08-13T01:33:01.882Z,59.70
2018-08-13T01:33:33.699Z,59.60
2018-08-13T01:34:05.528Z,59.70
2018-08-13T01:34:37.433Z,59.60
2018-08-13T01:35:09.274Z,59.50
2018-08-13T01:35:41.226Z,59.60
2018-08-13T01:36:13.009Z,59.60
2018-08-13T01:36:44.807Z,59.70
2018-08-13T01:37:16.670Z,59.70
2018-08-13T01:37:48.825Z,59.70
2018-08-13T01:38:20.657Z,59.70
2018-08-13T01:38:52.548Z,59.60
2018-08-13T01:39:24.385Z,59.50
2018-08-13T01:39:56.239Z,59.30
2018-08-13T01:40:28.047Z,59.50
2018-08-13T01:40:59.954Z,59.60
2018-08-13T01:41:31.858Z,59.60
2018-08-13T01:42:03.697Z,59.70
2018-08-13T01:42:35.682Z,59.80
2018-08-13T01:43:07.496Z,59.70
2018-08-13T01:43:39.307Z,59.80
2018-08-13T01:44:11.174Z,59.70
2018-08-13T01:44:42.995Z,59.70
2018-08-13T01:45:14.937Z,59.70
2018-08-13T01:45:46.860Z,59.70
2018-08-13T01:46:18.657Z,59.70
2018-08-13T01:46:50.468Z,59.60
2018-08-13T01:47:22.231Z,59.60
2018-08-13T01:47:54.088Z,59.50
2018-08-13T01:48:25.906Z,59.60
2018-08-13T01:48:57.733Z,59.50
2018-08-13T01:49:29.545Z,59.50
2018-08-13T01:50:01.348Z,59.40
2018-08-13T01:50:33.136Z,59.50
2018-08-13T01:51:05.048Z,59.60
2018-08-13T01:51:36.947Z,59.60
2018-08-13T01:52:08.730Z,59.60
2018-08-13T01:52:40.556Z,59.50
2018-08-13T01:53:12.326Z,59.50
2018-08-13T01:53:44.091Z,59.20
2018-08-13T01:54:15.898Z,59.50
2018-08-13T01:54:47.807Z,59.60
2018-08-13T01:55:19.671Z,59.60
2018-08-13T01:55:51.446Z,59.40
2018-08-13T01:56:23.238Z,59.50
2018-08-13T01:56:55.019Z,59.40
2018-08-13T01:57:26.810Z,59.60
2018-08-13T01:57:58.582Z,59.60
2018-08-13T01:58:30.436Z,59.50
2018-08-13T01:59:02.252Z,59.40
2018-08-13T01:59:34.053Z,59.60
2018-08-13T02:00:05.853Z,59.70
2018-08-13T02:00:37.622Z,59.60
2018-08-13T02:01:09.397Z,59.70
2018-08-13T02:01:41.225Z,59.80
2018-08-13T02:02:13.227Z,59.50
2018-08-13T02:02:45.052Z,59.80
2018-08-13T02:03:16.845Z,59.70
2018-08-13T02:03:48.614Z,59.70
2018-08-13T02:04:20.410Z,59.70
2018-08-13T02:04:52.186Z,59.70
2018-08-13T02:05:24.017Z,59.70
2018-08-13T02:05:55.800Z,59.70
2018-08-13T02:06:27.593Z,59.60
2018-08-13T02:06:59.365Z,59.70
2018-08-13T02:07:31.168Z,59.80
2018-08-13T02:08:02.971Z,59.70
2018-08-13T02:08:34.766Z,59.80
2018-08-13T02:09:06.619Z,59.70
2018-08-13T02:09:38.687Z,59.70
2018-08-13T02:10:10.465Z,59.80
2018-08-13T02:10:42.283Z,59.80
2018-08-13T02:11:14.075Z,59.90
2018-08-13T02:11:45.869Z,60.00
2018-08-13T02:12:17.657Z,59.90
2018-08-13T02:12:49.446Z,59.90
2018-08-13T02:13:21.238Z,59.90
2018-08-13T02:13:53.066Z,59.90
2018-08-13T02:14:24.831Z,59.80
2018-08-13T02:14:56.625Z,59.80
2018-08-13T02:15:28.405Z,59.60
2018-08-13T02:16:00.285Z,59.70
2018-08-13T02:16:32.080Z,59.70
2018-08-13T02:17:03.912Z,60.40
2018-08-13T02:17:35.775Z,59.80
2018-08-13T02:18:07.744Z,59.90
2018-08-13T02:18:39.585Z,60.00
2018-08-13T02:19:11.443Z,60.00
2018-08-13T02:19:43.382Z,60.20
2018-08-13T02:20:15.278Z,60.10
2018-08-13T02:20:47.072Z,60.10
2018-08-13T02:21:18.874Z,60.00
2018-08-13T02:21:50.752Z,60.00
2018-08-13T02:22:22.547Z,60.00
2018-08-13T02:22:54.332Z,59.90
2018-08-13T02:23:26.163Z,59.80
2018-08-13T02:23:58.015Z,59.80
2018-08-13T02:24:29.881Z,59.80
2018-08-13T02:25:02.007Z,59.80
2018-08-13T02:25:33.908Z,59.60
2018-08-13T02:26:05.945Z,59.70
2018-08-13T02:26:37.940Z,59.60
2018-08-13T02:27:09.794Z,59.70
2018-08-13T02:27:41.625Z,59.60
2018-08-13T02:28:13.404Z,59.60
2018-08-13T02:28:45.242Z,59.70
2018-08-13T02:29:17.062Z,59.70
2018-08-13T02:29:48.923Z,60.10
2018-08-13T02:30:20.696Z,59.70
2018-08-13T02:30:52.511Z,59.70
2018-08-13T02:31:24.316Z,59.80
2018-08-13T02:31:56.324Z,59.80
2018-08-13T02:32:28.158Z,59.80
2018-08-13T02:33:00.514Z,59.80
2018-08-13T02:33:32.356Z,59.60
2018-08-13T02:34:04.136Z,59.70
2018-08-13T02:34:35.914Z,59.80
2018-08-13T02:35:07.746Z,59.80
2018-08-13T02:35:39.652Z,59.60
2018-08-13T02:36:11.472Z,59.60
2018-08-13T02:36:43.347Z,59.50
2018-08-13T02:37:15.374Z,59.40
2018-08-13T02:37:47.245Z,59.80
2018-08-13T02:38:19.234Z,59.40
2018-08-13T02:38:51.098Z,59.60
2018-08-13T02:39:22.873Z,59.70
2018-08-13T02:39:54.713Z,59.70
2018-08-13T02:40:26.555Z,59.70
2018-08-13T02:40:58.545Z,59.80
2018-08-13T02:41:30.676Z,59.80
2018-08-13T02:42:02.595Z,59.80
2018-08-13T02:42:34.501Z,59.30
2018-08-13T02:43:06.513Z,59.90
2018-08-13T02:43:38.339Z,59.90
2018-08-13T02:44:10.233Z,60.50
2018-08-13T02:44:42.085Z,60.70
2018-08-13T02:45:13.882Z,60.00
2018-08-13T02:45:45.704Z,60.10
2018-08-13T02:46:17.592Z,60.00
2018-08-13T02:46:49.464Z,59.90
2018-08-13T02:47:21.342Z,60.00
2018-08-13T02:47:53.195Z,60.00
2018-08-13T02:48:24.963Z,60.10
2018-08-13T02:48:56.773Z,60.00
2018-08-13T02:49:28.600Z,60.10
2018-08-13T02:50:00.603Z,60.10
2018-08-13T02:50:32.467Z,60.20
2018-08-13T02:51:04.264Z,60.20
2018-08-13T02:51:36.047Z,60.20
2018-08-13T02:52:07.821Z,60.30
2018-08-13T02:52:39.720Z,60.30
2018-08-13T02:53:11.626Z,60.30
2018-08-13T02:53:43.416Z,60.20
2018-08-13T02:54:15.258Z,60.30
2018-08-13T02:54:47.035Z,60.30
2018-08-13T02:55:18.850Z,60.30
2018-08-13T02:55:50.708Z,60.40
2018-08-13T02:56:22.604Z,60.30
2018-08-13T02:56:54.421Z,60.20
2018-08-13T02:57:26.265Z,60.30
2018-08-13T02:57:58.129Z,60.30
2018-08-13T02:58:30.101Z,60.30
2018-08-13T02:59:01.908Z,60.40
2018-08-13T02:59:33.803Z,60.40
2018-08-13T03:00:05.584Z,60.40
2018-08-13T03:00:37.430Z,60.40
2018-08-13T03:01:09.631Z,60.40
2018-08-13T03:01:41.427Z,60.50
2018-08-13T03:02:13.322Z,60.50
2018-08-13T03:02:45.095Z,60.40
2018-08-13T03:03:16.901Z,60.60
2018-08-13T03:03:48.730Z,60.60
2018-08-13T03:04:20.558Z,59.90
2018-08-13T03:04:52.358Z,60.60
2018-08-13T03:05:24.237Z,60.50
2018-08-13T03:05:56.174Z,60.70
2018-08-13T03:06:27.960Z,60.70
2018-08-13T03:06:59.802Z,60.70
2018-08-13T03:07:31.602Z,60.70
2018-08-13T03:08:03.421Z,61.40
2018-08-13T03:08:35.217Z,60.70
2018-08-13T03:09:07.156Z,60.70
2018-08-13T03:09:38.935Z,60.80
2018-08-13T03:10:10.840Z,60.70
2018-08-13T03:10:42.715Z,60.60
2018-08-13T03:11:14.581Z,60.30
2018-08-13T03:11:46.448Z,60.70
2018-08-13T03:12:18.377Z,60.60
2018-08-13T03:12:50.460Z,60.90
2018-08-13T03:13:22.330Z,60.60
2018-08-13T03:13:54.159Z,60.50
2018-08-13T03:14:26.010Z,60.50
2018-08-13T03:14:58.011Z,60.60
2018-08-13T03:15:29.805Z,60.00
2018-08-13T03:16:01.743Z,60.30
2018-08-13T03:16:33.630Z,60.40
2018-08-13T03:17:05.484Z,60.30
2018-08-13T03:17:37.346Z,60.20
2018-08-13T03:18:09.203Z,60.20
2018-08-13T03:18:41.038Z,60.30
2018-08-13T03:19:12.860Z,60.20
2018-08-13T03:19:44.651Z,60.20
2018-08-13T03:20:16.460Z,60.20
2018-08-13T03:20:48.329Z,60.20
2018-08-13T03:21:20.168Z,60.10
2018-08-13T03:21:51.967Z,60.20
2018-08-13T03:22:23.751Z,60.20
2018-08-13T03:22:55.536Z,60.20
2018-08-13T03:23:27.318Z,60.10
2018-08-13T03:23:59.439Z,60.10
2018-08-13T03:24:31.289Z,60.20
2018-08-13T03:25:03.146Z,60.10
2018-08-13T03:25:35.032Z,60.20
2018-08-13T03:26:06.852Z,60.20
2018-08-13T03:26:38.688Z,60.10
2018-08-13T03:27:10.549Z,60.20
2018-08-13T03:27:42.488Z,60.20
2018-08-13T03:28:14.309Z,60.20
2018-08-13T03:28:46.111Z,60.10
2018-08-13T03:29:18.044Z,60.20
2018-08-13T03:29:49.811Z,60.10
2018-08-13T03:30:21.607Z,60.20
2018-08-13T03:30:53.414Z,60.20
2018-08-13T03:31:25.199Z,60.20
2018-08-13T03:31:56.980Z,60.10
2018-08-13T03:32:29.274Z,60.20
2018-08-13T03:33:01.032Z,60.10
2018-08-13T03:33:32.899Z,60.00
2018-08-13T03:34:04.843Z,60.10
2018-08-13T03:34:36.730Z,60.10
2018-08-13T03:35:08.633Z,60.10
2018-08-13T03:35:40.414Z,60.10
2018-08-13T03:36:12.209Z,60.10
2018-08-13T03:36:43.983Z,60.00
2018-08-13T03:37:15.773Z,60.10
2018-08-13T03:37:47.583Z,60.10
2018-08-13T03:38:19.382Z,60.00
2018-08-13T03:38:51.193Z,60.00
2018-08-13T03:39:22.973Z,60.00
2018-08-13T03:39:54.739Z,60.20
2018-08-13T03:40:26.539Z,60.10
2018-08-13T03:40:58.322Z,60.30
2018-08-13T03:41:30.101Z,60.20
2018-08-13T03:42:01.905Z,60.90
2018-08-13T03:42:33.702Z,60.10
2018-08-13T03:43:05.481Z,60.10
2018-08-13T03:43:37.277Z,60.00
2018-08-13T03:44:09.472Z,60.00
2018-08-13T03:44:41.286Z,60.30
2018-08-13T03:45:13.104Z,60.20
2018-08-13T03:45:45.124Z,60.20
2018-08-13T03:46:17.096Z,60.50
2018-08-13T03:46:48.878Z,60.20
2018-08-13T03:47:20.795Z,60.00
2018-08-13T03:47:52.674Z,60.20
2018-08-13T03:48:24.466Z,60.10
2018-08-13T03:48:56.241Z,60.80
2018-08-13T03:49:28.038Z,60.00
2018-08-13T03:49:59.895Z,60.40
2018-08-13T03:50:31.731Z,60.00
2018-08-13T03:51:03.559Z,60.00
2018-08-13T03:51:35.461Z,60.00
2018-08-13T03:52:07.266Z,60.00
2018-08-13T03:52:39.087Z,60.20
2018-08-13T03:53:10.899Z,60.00
2018-08-13T03:53:42.823Z,60.00
2018-08-13T03:54:14.800Z,60.00
2018-08-13T03:54:46.588Z,60.00
2018-08-13T03:55:18.386Z,59.90
2018-08-13T03:55:50.386Z,60.00
2018-08-13T03:56:22.152Z,60.00
2018-08-13T03:56:54.127Z,60.00
2018-08-13T03:57:26.047Z,59.90
2018-08-13T03:57:57.836Z,59.90
2018-08-13T03:58:29.729Z,59.90
2018-08-13T03:59:01.726Z,60.00
2018-08-13T03:59:33.492Z,59.90
2018-08-13T04:00:05.485Z,59.90
2018-08-13T04:00:37.286Z,59.90
2018-08-13T04:01:09.101Z,59.90
2018-08-13T04:01:40.977Z,59.90
2018-08-13T04:02:12.781Z,60.00
2018-08-13T04:02:44.581Z,59.50
2018-08-13T04:03:16.419Z,60.00
2018-08-13T04:03:48.217Z,60.00
2018-08-13T04:04:20.087Z,60.00
2018-08-13T04:04:51.900Z,59.90
2018-08-13T04:05:23.755Z,60.00
2018-08-13T04:05:55.527Z,60.00
2018-08-13T04:06:27.328Z,60.00
2018-08-13T04:06:59.117Z,60.00
2018-08-13T04:07:30.908Z,59.90
2018-08-13T04:08:02.676Z,59.90
2018-08-13T04:08:34.507Z,59.90
2018-08-13T04:09:06.338Z,59.90
2018-08-13T04:09:38.107Z,59.80
2018-08-13T04:10:09.899Z,59.80
2018-08-13T04:10:41.690Z,60.40
2018-08-13T04:11:13.484Z,59.80
2018-08-13T04:11:45.268Z,60.00
2018-08-13T04:12:17.089Z,60.60
2018-08-13T04:12:48.866Z,59.80
2018-08-13T04:13:20.669Z,60.40
2018-08-13T04:13:52.458Z,59.80
2018-08-13T04:14:24.254Z,59.90
2018-08-13T04:14:56.033Z,59.80
2018-08-13T04:15:27.898Z,59.80
2018-08-13T04:15:59.683Z,60.00
2018-08-13T04:16:31.464Z,59.90
2018-08-13T04:17:03.371Z,59.70
2018-08-13T04:17:35.209Z,59.70
2018-08-13T04:18:07.196Z,59.80
2018-08-13T04:18:38.980Z,59.90
2018-08-13T04:19:10.976Z,60.30
2018-08-13T04:19:42.801Z,59.70
2018-08-13T04:20:14.652Z,59.70
2018-08-13T04:20:46.489Z,59.70
2018-08-13T04:21:18.253Z,59.70
2018-08-13T04:21:50.051Z,59.70
2018-08-13T04:22:21.943Z,59.90
2018-08-13T04:22:53.770Z,59.70
2018-08-13T04:23:25.643Z,59.70
2018-08-13T04:23:57.603Z,59.80
2018-08-13T04:24:29.474Z,59.80
2018-08-13T04:25:01.347Z,60.50
2018-08-13T04:25:33.249Z,59.90
2018-08-13T04:26:05.092Z,59.70
2018-08-13T04:26:36.890Z,59.90
2018-08-13T04:27:08.759Z,59.90
2018-08-13T04:27:40.561Z,59.70
2018-08-13T04:28:12.454Z,59.80
2018-08-13T04:28:44.280Z,59.70
2018-08-13T04:29:16.047Z,59.70
2018-08-13T04:29:47.920Z,59.70
2018-08-13T04:30:19.771Z,59.80
2018-08-13T04:30:51.587Z,59.70
2018-08-13T04:31:23.540Z,59.80
2018-08-13T04:31:55.552Z,59.70
2018-08-13T04:32:27.407Z,59.90
2018-08-13T04:32:59.235Z,59.70
2018-08-13T04:33:31.125Z,59.70
2018-08-13T04:34:02.909Z,59.80
2018-08-13T04:34:34.678Z,59.90
2018-08-13T04:35:06.477Z,59.80
2018-08-13T04:35:38.284Z,59.70
2018-08-13T04:36:10.099Z,59.80
2018-08-13T04:36:41.932Z,59.80
2018-08-13T04:37:13.724Z,59.80
2018-08-13T04:37:45.575Z,59.80
2018-08-13T04:38:17.480Z,59.70
2018-08-13T04:38:49.269Z,59.70
2018-08-13T04:39:21.084Z,59.70
2018-08-13T04:39:52.869Z,59.60
2018-08-13T04:40:24.678Z,59.60
2018-08-13T04:40:56.492Z,59.70
2018-08-13T04:41:28.400Z,59.70
2018-08-13T04:42:00.302Z,59.70
2018-08-13T04:42:32.186Z,59.60
2018-08-13T04:43:04.163Z,59.70
2018-08-13T04:43:36.110Z,59.60
2018-08-13T04:44:07.992Z,59.60
2018-08-13T04:44:39.861Z,59.50
2018-08-13T04:45:11.641Z,59.50
2018-08-13T04:45:43.441Z,59.50
2018-08-13T04:46:15.252Z,59.50
2018-08-13T04:46:47.070Z,59.50
2018-08-13T04:47:19.231Z,59.50
2018-08-13T04:47:51.040Z,59.50
2018-08-13T04:48:22.957Z,59.50
2018-08-13T04:48:54.790Z,59.50
2018-08-13T04:49:26.640Z,59.90
2018-08-13T04:49:58.473Z,59.40
2018-08-13T04:50:30.255Z,59.40
2018-08-13T04:51:02.102Z,59.40
2018-08-13T04:51:33.999Z,59.50
2018-08-13T04:52:06.873Z,59.40
2018-08-13T04:52:38.870Z,59.40
2018-08-13T04:53:10.910Z,59.40
2018-08-13T04:53:42.761Z,59.50
2018-08-13T04:54:14.611Z,59.40
2018-08-13T04:54:46.398Z,59.60
2018-08-13T04:55:18.401Z,59.60
2018-08-13T04:55:50.222Z,59.60
2018-08-13T04:56:22.090Z,60.30
2018-08-13T04:56:54.205Z,59.70
2018-08-13T04:57:26.091Z,59.70
2018-08-13T04:57:58.041Z,59.70
2018-08-13T04:58:29.875Z,59.70
2018-08-13T04:59:01.685Z,59.60
2018-08-13T04:59:33.697Z,59.60
2018-08-13T05:00:06.211Z,59.60
2018-08-13T05:00:38.241Z,59.60
2018-08-13T05:01:10.062Z,59.60
2018-08-13T05:01:41.880Z,59.70
2018-08-13T05:02:13.869Z,59.90
2018-08-13T05:02:45.773Z,59.50
2018-08-13T05:03:17.731Z,59.70
2018-08-13T05:03:49.540Z,59.80
2018-08-13T05:04:21.393Z,59.70
2018-08-13T05:04:53.197Z,59.70
2018-08-13T05:05:24.996Z,59.60
2018-08-13T05:05:56.921Z,59.60
2018-08-13T05:06:28.853Z,59.50
2018-08-13T05:07:00.661Z,59.30
2018-08-13T05:07:32.637Z,59.50
2018-08-13T05:08:04.476Z,59.60
2018-08-13T05:08:36.491Z,59.60
2018-08-13T05:09:08.319Z,59.70
2018-08-13T05:09:40.216Z,59.70
2018-08-13T05:10:12.063Z,59.60
2018-08-13T05:10:43.856Z,59.60
2018-08-13T05:11:15.770Z,59.60
2018-08-13T05:11:47.569Z,59.60
2018-08-13T05:12:19.544Z,59.60
2018-08-13T05:12:51.395Z,59.50
2018-08-13T05:13:23.215Z,59.60
2018-08-13T05:13:55.138Z,59.50
2018-08-13T05:14:26.990Z,59.60
2018-08-13T05:14:58.829Z,59.70
2018-08-13T05:15:31.000Z,59.80
2018-08-13T05:16:02.809Z,59.80
2018-08-13T05:16:34.640Z,59.80
2018-08-13T05:17:06.539Z,59.90
2018-08-13T05:17:38.359Z,59.90
2018-08-13T05:18:10.200Z,59.90
2018-08-13T05:18:42.169Z,60.00
2018-08-13T05:19:14.000Z,59.90
2018-08-13T05:19:46.373Z,59.90
2018-08-13T05:20:18.149Z,60.00
2018-08-13T05:20:49.980Z,60.00
2018-08-13T05:21:21.774Z,59.90
2018-08-13T05:21:53.780Z,59.90
2018-08-13T05:22:25.560Z,60.00
2018-08-13T05:22:57.441Z,59.90
2018-08-13T05:23:29.221Z,60.00
2018-08-13T05:24:01.045Z,59.90
2018-08-13T05:24:32.861Z,60.00
2018-08-13T05:25:04.743Z,60.00
2018-08-13T05:25:36.691Z,60.10
2018-08-13T05:26:08.491Z,60.00
2018-08-13T05:26:40.338Z,60.00
2018-08-13T05:27:12.117Z,60.20
2018-08-13T05:27:43.910Z,60.00
2018-08-13T05:28:15.742Z,60.00
2018-08-13T05:28:47.525Z,60.00
2018-08-13T05:29:19.368Z,59.90
2018-08-13T05:29:51.417Z,60.00
2018-08-13T05:30:23.490Z,60.00
2018-08-13T05:30:55.627Z,59.90
2018-08-13T05:31:27.452Z,60.10
2018-08-13T05:31:59.371Z,60.00
2018-08-13T05:32:31.289Z,60.20
2018-08-13T05:33:03.096Z,60.00
2018-08-13T05:33:34.929Z,60.00
2018-08-13T05:34:06.767Z,60.00
2018-08-13T05:34:38.598Z,59.90
2018-08-13T05:35:10.451Z,59.80
2018-08-13T05:35:42.227Z,60.00
2018-08-13T05:36:14.146Z,59.90
2018-08-13T05:36:45.953Z,59.80
2018-08-13T05:37:17.767Z,60.00
2018-08-13T05:37:49.548Z,59.90
2018-08-13T05:38:21.408Z,60.00
2018-08-13T05:38:53.378Z,60.00
2018-08-13T05:39:25.282Z,59.80
2018-08-13T05:39:57.163Z,59.80
2018-08-13T05:40:29.059Z,59.90
2018-08-13T05:41:00.934Z,59.80
2018-08-13T05:41:32.770Z,59.80
2018-08-13T05:42:04.787Z,59.90
2018-08-13T05:42:36.596Z,59.80
2018-08-13T05:43:08.512Z,59.70
2018-08-13T05:43:40.439Z,59.80
2018-08-13T05:44:12.490Z,59.70
2018-08-13T05:44:44.303Z,59.80
2018-08-13T05:45:16.269Z,59.80
2018-08-13T05:45:48.304Z,59.70
2018-08-13T05:46:20.255Z,59.80
2018-08-13T05:46:52.101Z,59.90
2018-08-13T05:47:24.056Z,59.80
2018-08-13T05:47:55.849Z,59.90
2018-08-13T05:48:27.826Z,60.00
2018-08-13T05:48:59.664Z,60.50
2018-08-13T05:49:31.744Z,59.80
2018-08-13T05:50:03.510Z,59.90
2018-08-13T05:50:35.319Z,59.80
2018-08-13T05:51:07.288Z,59.80
2018-08-13T05:51:39.099Z,59.80
2018-08-13T05:52:11.089Z,59.80
2018-08-13T05:52:42.938Z,59.80
2018-08-13T05:53:14.741Z,59.70
2018-08-13T05:53:46.548Z,59.70
2018-08-13T05:54:18.450Z,59.90
2018-08-13T05:54:50.429Z,59.90
2018-08-13T05:55:22.428Z,60.00
2018-08-13T05:55:54.381Z,60.00
2018-08-13T05:56:26.195Z,59.80
2018-08-13T05:56:58.029Z,60.70
2018-08-13T05:57:30.049Z,59.80
2018-08-13T05:58:03.689Z,59.70
2018-08-13T05:58:36.119Z,60.00
2018-08-13T05:59:08.050Z,60.10
2018-08-13T05:59:40.081Z,60.10
2018-08-13T06:00:12.414Z,60.10
2018-08-13T06:00:44.265Z,60.30
2018-08-13T06:01:16.079Z,60.00
2018-08-13T06:01:47.902Z,60.00
2018-08-13T06:02:19.706Z,60.10
2018-08-13T06:02:51.644Z,60.10
2018-08-13T06:03:23.568Z,60.70
2018-08-13T06:03:55.519Z,59.90
2018-08-13T06:04:27.460Z,60.20
2018-08-13T06:04:59.305Z,60.00
2018-08-13T06:05:31.209Z,60.00
2018-08-13T06:06:03.060Z,60.00
2018-08-13T06:06:34.981Z,60.50
2018-08-13T06:07:06.768Z,60.10
2018-08-13T06:07:38.568Z,60.00
2018-08-13T06:08:10.437Z,60.10
2018-08-13T06:08:42.414Z,60.00
2018-08-13T06:09:14.721Z,60.10
2018-08-13T06:09:46.811Z,60.10
2018-08-13T06:10:18.787Z,60.10
2018-08-13T06:10:50.581Z,60.20
2018-08-13T06:11:22.479Z,60.10
2018-08-13T06:11:54.392Z,60.10
2018-08-13T06:12:26.410Z,60.10
2018-08-13T06:12:58.239Z,60.00
2018-08-13T06:13:30.019Z,59.90
2018-08-13T06:14:02.018Z,59.90
2018-08-13T06:14:33.841Z,59.90
2018-08-13T06:15:05.744Z,60.00
2018-08-13T06:15:37.700Z,60.00
2018-08-13T06:16:10.070Z,60.10
2018-08-13T06:16:41.910Z,60.10
2018-08-13T06:17:13.758Z,60.00
2018-08-13T06:17:45.698Z,60.20
2018-08-13T06:18:17.767Z,60.00
2018-08-13T06:18:49.772Z,60.10
2018-08-13T06:19:21.660Z,60.00
2018-08-13T06:19:53.476Z,60.20
2018-08-13T06:20:25.329Z,60.00
2018-08-13T06:20:57.208Z,60.00
2018-08-13T06:21:29.029Z,60.00
2018-08-13T06:22:00.854Z,59.90
2018-08-13T06:22:32.686Z,59.90
2018-08-13T06:23:04.745Z,60.00
2018-08-13T06:23:36.608Z,60.00
2018-08-13T06:24:08.401Z,60.00
2018-08-13T06:24:40.253Z,60.00
2018-08-13T06:25:12.190Z,60.10
2018-08-13T06:25:43.996Z,60.00
2018-08-13T06:26:15.829Z,60.10
2018-08-13T06:26:47.648Z,60.00
2018-08-13T06:27:19.531Z,60.00
2018-08-13T06:27:51.374Z,60.00
2018-08-13T06:28:23.184Z,60.10
2018-08-13T06:28:55.121Z,60.00
2018-08-13T06:29:26.914Z,59.90
2018-08-13T06:29:58.793Z,59.90
2018-08-13T06:30:30.843Z,59.80
2018-08-13T06:31:02.664Z,59.70
2018-08-13T06:31:34.560Z,59.70
2018-08-13T06:32:06.399Z,59.80
2018-08-13T06:32:38.253Z,59.90
2018-08-13T06:33:10.077Z,59.80
2018-08-13T06:33:41.934Z,59.70
2018-08-13T06:34:13.727Z,59.70
2018-08-13T06:34:45.530Z,59.80
2018-08-13T06:35:17.449Z,59.70
2018-08-13T06:35:49.292Z,59.70
2018-08-13T06:36:21.083Z,59.90
2018-08-13T06:36:52.913Z,59.70
2018-08-13T06:37:24.705Z,60.20
2018-08-13T06:37:56.519Z,59.70
2018-08-13T06:38:28.313Z,59.70
2018-08-13T06:39:00.109Z,59.70
2018-08-13T06:39:32.055Z,59.80
2018-08-13T06:40:03.843Z,59.80
2018-08-13T06:40:35.690Z,60.00
2018-08-13T06:41:07.550Z,59.60
2018-08-13T06:41:39.309Z,59.60
2018-08-13T06:42:11.424Z,59.50
2018-08-13T06:42:43.511Z,59.50
2018-08-13T06:43:15.325Z,59.70
2018-08-13T06:43:47.288Z,59.70
2018-08-13T06:44:19.263Z,59.50
2018-08-13T06:44:51.078Z,59.50
2018-08-13T06:45:23.109Z,59.50
2018-08-13T06:45:54.887Z,59.70
2018-08-13T06:46:26.838Z,59.60
2018-08-13T06:46:58.725Z,59.50
2018-08-13T06:47:30.702Z,59.60
2018-08-13T06:48:02.537Z,59.50
2018-08-13T06:48:34.493Z,59.50
2018-08-13T06:49:06.349Z,60.20
2018-08-13T06:49:38.432Z,59.40
2018-08-13T06:50:10.257Z,59.40